createdAt,value
2022-12-01T00:01:53.634Z,23.30
2022-12-01T00:04:22.684Z,21.45
2022-12-01T00:06:51.834Z,18.60
2022-12-01T00:09:42.512Z,20.73
2022-12-01T00:12:13.944Z,20.38
2022-12-01T00:14:43.091Z,20.05
2022-12-01T00:17:18.108Z,23.13
2022-12-01T00:19:47.609Z,21.70
2022-12-01T00:22:17.340Z,22.65
2022-12-01T00:24:47.619Z,21.92
2022-12-01T00:27:18.125Z,20.92
2022-12-01T00:29:48.408Z,22.60
2022-12-01T00:32:17.932Z,21.40
2022-12-01T00:34:47.007Z,21.10
2022-12-01T00:37:16.099Z,20.58
2022-12-01T00:39:45.165Z,19.40
2022-12-01T00:42:17.227Z,22.38
2022-12-01T00:44:47.462Z,18.48
2022-12-01T00:47:17.041Z,20.70
2022-12-01T00:49:46.729Z,16.73
2022-12-01T00:52:18.476Z,22.20
2022-12-01T00:54:47.520Z,17.50
2022-12-01T00:57:17.987Z,24.05
2022-12-01T00:59:48.489Z,26.80
2022-12-01T01:02:17.737Z,23.67
2022-12-01T01:04:46.823Z,23.73
2022-12-01T01:07:15.891Z,24.42
2022-12-01T01:09:45.043Z,22.77
2022-12-01T01:12:14.186Z,23.25
2022-12-01T01:14:44.758Z,27.02
2022-12-01T01:17:13.950Z,24.70
2022-12-01T01:19:42.955Z,25.85
2022-12-01T01:22:12.200Z,24.60
2022-12-01T01:24:42.302Z,28.30
2022-12-01T01:27:11.590Z,20.73
2022-12-01T01:29:40.585Z,21.77
2022-12-01T01:32:11.407Z,22.85
2022-12-01T01:34:40.466Z,27.60
2022-12-01T01:37:09.648Z,27.42
2022-12-01T01:39:38.744Z,31.40
2022-12-01T01:42:07.917Z,32.45
2022-12-01T01:44:54.837Z,34.30
2022-12-01T01:47:29.501Z,32.83
2022-12-01T01:50:09.732Z,34.95
2022-12-01T01:52:44.302Z,28.52
2022-12-01T01:55:14.669Z,36.88
2022-12-01T01:57:45.363Z,31.95
2022-12-01T02:00:19.043Z,33.75
2022-12-01T02:02:51.759Z,36.33
2022-12-01T02:05:24.745Z,36.65
2022-12-01T02:07:57.330Z,36.70
2022-12-01T02:10:46.540Z,33.72
2022-12-01T02:13:27.006Z,36.28
2022-12-01T02:16:09.593Z,39.67
2022-12-01T02:18:53.201Z,40.55
2022-12-01T02:21:44.236Z,43.08
2022-12-01T02:25:10.703Z,35.97
2022-12-01T02:28:20.120Z,39.42
2022-12-01T02:30:55.063Z,40.22
2022-12-01T02:33:30.544Z,30.05
2022-12-01T02:36:12.764Z,28.73
2022-12-01T02:38:49.355Z,28.00
2022-12-01T02:41:26.609Z,29.40
2022-12-01T02:46:41.854Z,24.35
2022-12-01T02:49:17.187Z,25.45
2022-12-01T02:51:49.707Z,25.50
2022-12-01T02:54:21.032Z,23.38
2022-12-01T02:56:53.790Z,28.65
2022-12-01T02:59:23.042Z,25.20
2022-12-01T03:02:12.828Z,29.80
2022-12-01T03:05:11.161Z,29.27
2022-12-01T03:07:53.030Z,26.50
2022-12-01T03:10:30.680Z,28.52
2022-12-01T03:13:13.362Z,25.73
2022-12-01T03:15:55.625Z,26.60
2022-12-01T03:18:37.239Z,29.50
2022-12-01T03:21:12.185Z,31.83
2022-12-01T03:23:44.927Z,27.52
2022-12-01T03:26:20.044Z,29.70
2022-12-01T03:28:53.458Z,29.42
2022-12-01T03:31:28.173Z,27.63
2022-12-01T03:34:05.473Z,28.92
2022-12-01T03:39:13.064Z,27.30
2022-12-01T03:41:51.248Z,26.73
2022-12-01T03:44:23.632Z,32.28
2022-12-01T03:46:58.585Z,30.80
2022-12-01T03:49:30.844Z,27.83
2022-12-01T03:52:15.319Z,26.92
2022-12-01T03:54:54.871Z,24.23
2022-12-01T03:57:35.949Z,27.38
2022-12-01T04:00:17.064Z,28.90
2022-12-01T04:02:46.415Z,26.55
2022-12-01T04:05:21.147Z,21.70
2022-12-01T04:07:54.671Z,23.60
2022-12-01T04:10:24.091Z,20.00
2022-12-01T04:13:02.553Z,25.30
2022-12-01T04:15:31.983Z,22.17
2022-12-01T04:18:11.372Z,21.48
2022-12-01T04:20:43.244Z,22.90
2022-12-01T04:23:32.378Z,25.83
2022-12-01T04:26:12.605Z,25.00
2022-12-01T04:28:44.704Z,20.75
2022-12-01T04:31:16.137Z,24.95
2022-12-01T04:33:45.417Z,30.25
2022-12-01T04:36:15.984Z,22.08
2022-12-01T04:38:45.252Z,22.80
2022-12-01T04:41:15.615Z,23.88
2022-12-01T04:43:44.759Z,20.88
2022-12-01T04:46:14.035Z,25.35
2022-12-01T04:48:43.623Z,25.13
2022-12-01T04:51:12.618Z,23.90
2022-12-01T04:53:43.345Z,21.40
2022-12-01T04:56:12.546Z,24.27
2022-12-01T04:58:42.260Z,19.98
2022-12-01T05:01:14.810Z,25.08
2022-12-01T05:03:49.374Z,26.17
2022-12-01T05:06:20.853Z,25.27
2022-12-01T05:08:52.571Z,24.23
2022-12-01T05:11:21.648Z,21.25
2022-12-01T05:13:50.893Z,26.55
2022-12-01T05:16:22.374Z,26.75
2022-12-01T05:19:13.858Z,24.40
2022-12-01T05:21:43.280Z,26.42
2022-12-01T05:24:16.099Z,26.73
2022-12-01T05:26:45.848Z,28.42
2022-12-01T05:29:15.369Z,24.05
2022-12-01T05:31:46.013Z,25.80
2022-12-01T05:34:16.996Z,23.73
2022-12-01T05:36:46.329Z,23.45
2022-12-01T05:39:16.992Z,25.10
2022-12-01T05:41:46.034Z,21.73
2022-12-01T05:44:15.083Z,20.85
2022-12-01T05:46:44.051Z,19.83
2022-12-01T05:49:13.200Z,23.15
2022-12-01T05:51:43.652Z,24.98
2022-12-01T05:54:12.853Z,19.83
2022-12-01T05:56:43.544Z,20.13
2022-12-01T05:59:12.557Z,21.38
2022-12-01T06:01:41.595Z,20.00
2022-12-01T06:04:10.736Z,17.80
2022-12-01T06:06:39.785Z,19.05
2022-12-01T06:09:09.436Z,17.52
2022-12-01T06:11:38.631Z,20.73
2022-12-01T06:14:09.298Z,16.75
2022-12-01T06:16:38.364Z,19.00
2022-12-01T06:19:07.541Z,20.90
2022-12-01T06:21:36.580Z,18.23
2022-12-01T06:24:05.943Z,24.42
2022-12-01T06:26:35.077Z,22.98
2022-12-01T06:29:04.124Z,20.75
2022-12-01T06:31:34.578Z,21.15
2022-12-01T06:34:03.733Z,16.77
2022-12-01T06:36:33.537Z,15.65
2022-12-01T06:39:02.528Z,14.38
2022-12-01T06:41:32.616Z,16.20
2022-12-01T06:44:02.672Z,15.82
2022-12-01T06:46:32.024Z,17.85
2022-12-01T06:49:03.380Z,17.25
2022-12-01T06:51:34.325Z,19.85
2022-12-01T06:54:05.585Z,17.33
2022-12-01T06:56:34.892Z,20.08
2022-12-01T06:59:04.342Z,20.23
2022-12-01T07:01:33.780Z,18.20
2022-12-01T07:04:04.520Z,18.15
2022-12-01T07:06:33.989Z,16.67
2022-12-01T07:09:03.377Z,16.52
2022-12-01T07:11:32.550Z,15.40
2022-12-01T07:14:03.807Z,21.00
2022-12-01T07:16:32.825Z,19.77
2022-12-01T07:19:03.984Z,18.23
2022-12-01T07:21:32.955Z,15.95
2022-12-01T07:24:02.339Z,16.30
2022-12-01T07:26:31.314Z,13.80
2022-12-01T07:29:04.823Z,14.90
2022-12-01T07:31:34.925Z,14.88
2022-12-01T07:34:12.718Z,17.45
2022-12-01T07:36:41.771Z,16.30
2022-12-01T07:39:10.879Z,15.30
2022-12-01T07:41:39.924Z,25.30
2022-12-01T07:44:11.651Z,25.35
2022-12-01T07:46:40.706Z,24.95
2022-12-01T07:49:14.843Z,24.30
2022-12-01T07:51:43.873Z,24.27
2022-12-01T07:54:14.339Z,21.50
2022-12-01T07:56:43.578Z,19.63
2022-12-01T07:59:12.842Z,19.10
2022-12-01T08:01:44.659Z,20.83
2022-12-01T08:04:15.787Z,20.42
2022-12-01T08:06:44.816Z,16.23
2022-12-01T08:09:13.950Z,16.83
2022-12-01T08:11:43.059Z,17.38
2022-12-01T08:14:12.130Z,17.80
2022-12-01T08:16:41.228Z,17.55
2022-12-01T08:19:12.076Z,16.95
2022-12-01T08:21:42.529Z,19.40
2022-12-01T08:24:12.734Z,18.55
2022-12-01T08:26:41.917Z,17.08
2022-12-01T08:29:14.603Z,19.08
2022-12-01T08:31:46.165Z,15.40
2022-12-01T08:34:15.208Z,17.95
2022-12-01T08:36:45.683Z,21.05
2022-12-01T08:39:14.978Z,18.55
2022-12-01T08:41:44.329Z,16.80
2022-12-01T08:44:13.690Z,22.15
2022-12-01T08:46:42.911Z,22.63
2022-12-01T08:49:12.006Z,18.63
2022-12-01T08:51:41.028Z,20.80
2022-12-01T08:54:13.310Z,17.15
2022-12-01T08:56:45.844Z,26.42
2022-12-01T08:59:14.939Z,20.17
2022-12-01T09:01:53.373Z,21.17
2022-12-01T09:04:24.837Z,19.65
2022-12-01T09:06:56.580Z,20.13
2022-12-01T09:09:29.715Z,17.55
2022-12-01T09:11:58.731Z,17.23
2022-12-01T09:14:28.233Z,21.27
2022-12-01T09:16:57.251Z,18.38
2022-12-01T09:19:28.603Z,19.67
2022-12-01T09:21:57.812Z,20.02
2022-12-01T09:24:28.889Z,20.50
2022-12-01T09:26:58.909Z,28.45
2022-12-01T09:29:28.023Z,26.13
2022-12-01T09:31:58.560Z,23.33
2022-12-01T09:34:28.990Z,27.75
2022-12-01T09:36:58.793Z,21.90
2022-12-01T09:39:29.873Z,24.25
2022-12-01T09:42:09.126Z,25.92
2022-12-01T09:44:43.924Z,28.08
2022-12-01T09:47:22.744Z,29.40
2022-12-01T09:49:58.690Z,25.88
2022-12-01T09:52:34.636Z,26.08
2022-12-01T09:55:08.341Z,24.75
2022-12-01T09:57:40.497Z,27.23
2022-12-01T10:00:18.169Z,25.38
2022-12-01T10:02:55.101Z,23.73
2022-12-01T10:05:36.600Z,26.20
2022-12-01T10:08:09.290Z,25.95
2022-12-01T10:10:43.928Z,27.50
2022-12-01T10:13:19.468Z,26.27
2022-12-01T10:16:00.843Z,27.33
2022-12-01T10:18:45.832Z,24.38
2022-12-01T10:21:27.127Z,22.02
2022-12-01T10:24:13.979Z,21.85
2022-12-01T10:26:54.834Z,23.52
2022-12-01T10:29:33.171Z,22.52
2022-12-01T10:32:11.288Z,22.85
2022-12-01T10:34:43.598Z,22.88
2022-12-01T10:37:18.161Z,25.05
2022-12-01T10:39:50.057Z,23.38
2022-12-01T10:42:28.197Z,25.77
2022-12-01T10:45:01.013Z,26.15
2022-12-01T10:47:31.468Z,21.85
2022-12-01T10:50:00.537Z,25.92
2022-12-01T10:52:37.152Z,21.73
2022-12-01T10:55:27.760Z,23.67
2022-12-01T10:58:06.151Z,22.20
2022-12-01T11:00:59.161Z,24.45
2022-12-01T11:03:33.404Z,25.98
2022-12-01T11:06:06.410Z,20.30
2022-12-01T11:08:41.956Z,25.38
2022-12-01T11:11:31.494Z,24.88
2022-12-01T11:14:07.215Z,23.90
2022-12-01T11:16:41.556Z,21.30
2022-12-01T11:19:29.111Z,24.70
2022-12-01T11:22:00.944Z,24.70
2022-12-01T11:24:43.614Z,26.13
2022-12-01T11:27:21.192Z,23.25
2022-12-01T11:29:55.923Z,23.95
2022-12-01T11:32:27.415Z,23.58
2022-12-01T11:35:00.628Z,23.65
2022-12-01T11:37:37.764Z,23.38
2022-12-01T11:40:19.877Z,24.63
2022-12-01T11:42:52.226Z,21.98
2022-12-01T11:45:32.362Z,22.45
2022-12-01T11:48:06.148Z,21.92
2022-12-01T11:50:38.093Z,22.60
2022-12-01T11:53:28.716Z,26.27
2022-12-01T11:56:20.822Z,27.58
2022-12-01T11:58:58.668Z,22.10
2022-12-01T12:01:41.701Z,23.67
2022-12-01T12:04:27.770Z,24.55
2022-12-01T12:07:07.754Z,22.90
2022-12-01T12:09:52.084Z,27.48
2022-12-01T12:12:39.863Z,26.75
2022-12-01T12:15:25.539Z,25.80
2022-12-01T12:18:17.343Z,22.15
2022-12-01T12:21:04.600Z,23.65
2022-12-01T12:24:04.557Z,21.63
2022-12-01T12:26:41.596Z,22.50
2022-12-01T12:29:29.848Z,25.98
2022-12-01T12:32:19.163Z,27.92
2022-12-01T12:35:03.662Z,31.98
2022-12-01T12:37:46.482Z,26.70
2022-12-01T12:40:36.263Z,26.13
2022-12-01T12:43:22.263Z,24.25
2022-12-01T12:46:14.168Z,25.55
2022-12-01T12:49:21.192Z,27.92
2022-12-01T12:52:05.070Z,28.48
2022-12-01T12:54:48.225Z,29.00
2022-12-01T12:57:27.474Z,27.58
2022-12-01T13:00:01.316Z,27.15
2022-12-01T13:02:39.337Z,28.48
2022-12-01T13:05:16.880Z,29.40
2022-12-01T13:07:56.558Z,28.17
2022-12-01T13:10:38.217Z,27.30
2022-12-01T13:13:25.460Z,27.02
2022-12-01T13:15:57.855Z,26.35
2022-12-01T13:18:35.234Z,25.58
2022-12-01T13:23:39.402Z,30.10
2022-12-01T13:26:11.499Z,23.52
2022-12-01T13:28:48.934Z,22.17
2022-12-01T13:31:20.194Z,22.23
2022-12-01T13:33:59.217Z,21.63
2022-12-01T13:39:23.374Z,20.17
2022-12-01T13:42:03.253Z,19.55
2022-12-01T13:44:40.359Z,21.70
2022-12-01T13:47:39.672Z,20.15
2022-12-01T13:50:56.638Z,20.35
2022-12-01T13:53:32.211Z,21.20
2022-12-01T13:56:39.763Z,20.83
2022-12-01T14:00:17.956Z,18.27
2022-12-01T14:02:47.172Z,19.38
2022-12-01T14:05:47.094Z,19.10
2022-12-01T14:08:23.491Z,18.63
2022-12-01T14:10:57.838Z,20.63
2022-12-01T14:13:29.873Z,20.33
2022-12-01T14:16:08.241Z,22.02
2022-12-01T14:18:43.990Z,18.45
2022-12-01T14:21:15.759Z,20.48
2022-12-01T14:24:05.057Z,19.75
2022-12-01T14:26:45.019Z,22.15
2022-12-01T14:29:35.137Z,20.33
2022-12-01T14:32:25.523Z,21.52
2022-12-01T14:35:02.499Z,21.58
2022-12-01T14:37:45.317Z,22.25
2022-12-01T14:40:22.523Z,19.80
2022-12-01T14:43:14.136Z,22.88
2022-12-01T14:45:58.300Z,18.88
2022-12-01T14:48:36.041Z,19.63
2022-12-01T14:51:20.675Z,18.60
2022-12-01T14:53:53.500Z,19.02
2022-12-01T14:56:25.476Z,18.92
2022-12-01T14:59:22.360Z,17.08
2022-12-01T15:01:57.475Z,22.27
2022-12-01T15:04:28.167Z,19.25
2022-12-01T15:06:58.855Z,20.15
2022-12-01T15:09:36.022Z,18.63
2022-12-01T15:12:08.084Z,18.10
2022-12-01T15:14:40.535Z,21.33
2022-12-01T15:17:32.207Z,19.17
2022-12-01T15:20:01.815Z,18.15
2022-12-01T15:22:35.145Z,15.77
2022-12-01T15:25:14.510Z,17.90
2022-12-01T15:27:45.942Z,18.98
2022-12-01T15:30:17.119Z,16.55
2022-12-01T15:32:49.073Z,19.35
2022-12-01T15:35:23.993Z,18.27
2022-12-01T15:37:53.798Z,17.15
2022-12-01T15:41:06.318Z,18.25
2022-12-01T15:43:20.178Z,18.42
2022-12-01T15:45:57.745Z,19.50
2022-12-01T15:48:31.927Z,23.42
2022-12-01T15:51:07.691Z,22.95
2022-12-01T15:53:40.151Z,23.77
2022-12-01T15:56:11.583Z,23.52
2022-12-01T15:58:45.433Z,24.42
2022-12-01T16:01:17.457Z,23.67
2022-12-01T16:03:58.980Z,24.75
2022-12-01T16:06:31.576Z,25.92
2022-12-01T16:09:03.522Z,25.30
2022-12-01T16:11:33.059Z,26.23
2022-12-01T16:14:06.194Z,32.45
2022-12-01T16:16:42.724Z,25.50
2022-12-01T16:19:30.303Z,27.08
2022-12-01T16:22:15.094Z,23.55
2022-12-01T16:24:50.759Z,26.63
2022-12-01T16:27:23.819Z,22.45
2022-12-01T16:29:55.825Z,18.60
2022-12-01T16:32:33.723Z,22.85
2022-12-01T16:35:04.490Z,18.50
2022-12-01T16:37:33.754Z,20.08
2022-12-01T16:40:02.713Z,21.80
2022-12-01T16:42:31.739Z,19.73
2022-12-01T16:45:00.733Z,25.45
2022-12-01T16:47:33.297Z,22.80
2022-12-01T16:50:03.774Z,21.10
2022-12-01T16:52:48.260Z,23.38
2022-12-01T16:55:35.176Z,20.85
2022-12-01T16:58:04.210Z,24.25
2022-12-01T17:00:33.680Z,22.05
2022-12-01T17:03:02.943Z,22.95
2022-12-01T17:05:34.291Z,21.30
2022-12-01T17:08:03.409Z,23.77
2022-12-01T17:10:32.776Z,22.55
2022-12-01T17:13:01.856Z,21.30
2022-12-01T17:15:30.961Z,23.02
2022-12-01T17:18:00.459Z,23.05
2022-12-01T17:20:29.572Z,25.83
2022-12-01T17:23:00.321Z,24.27
2022-12-01T17:25:30.553Z,26.27
2022-12-01T17:28:00.354Z,24.65
2022-12-01T17:30:29.458Z,24.75
2022-12-01T17:32:59.873Z,25.23
2022-12-01T17:35:28.946Z,30.73
2022-12-01T17:38:02.389Z,26.23
2022-12-01T17:40:31.648Z,25.27
2022-12-01T17:43:02.647Z,20.85
2022-12-01T17:45:34.005Z,28.38
2022-12-01T17:48:03.104Z,23.48
2022-12-01T17:50:32.268Z,26.88
2022-12-01T17:53:02.849Z,28.80
2022-12-01T17:55:31.854Z,22.23
2022-12-01T17:58:00.926Z,30.65
2022-12-01T18:00:29.978Z,32.33
2022-12-01T18:03:00.166Z,29.13
2022-12-01T18:05:30.339Z,27.60
2022-12-01T18:08:00.055Z,26.52
2022-12-01T18:10:30.676Z,24.80
2022-12-01T18:13:00.957Z,24.40
2022-12-01T18:15:34.644Z,24.17
2022-12-01T18:18:04.011Z,28.73
2022-12-01T18:20:33.460Z,26.33
2022-12-01T18:23:02.682Z,24.75
2022-12-01T18:25:35.065Z,25.73
2022-12-01T18:28:04.799Z,31.08
2022-12-01T18:30:38.919Z,32.70
2022-12-01T18:33:16.717Z,30.40
2022-12-01T18:35:48.096Z,25.02
2022-12-01T18:38:17.079Z,24.55
2022-12-01T18:40:47.549Z,22.58
2022-12-01T18:43:28.899Z,23.65
2022-12-01T18:45:58.904Z,26.33
2022-12-01T18:48:28.108Z,25.85
2022-12-01T18:50:59.567Z,24.83
2022-12-01T18:53:29.011Z,23.50
2022-12-01T18:56:03.719Z,30.35
2022-12-01T18:58:34.314Z,24.80
2022-12-01T19:01:04.969Z,24.27
2022-12-01T19:03:34.514Z,30.23
2022-12-01T19:06:07.493Z,32.35
2022-12-01T19:08:36.639Z,36.53
2022-12-01T19:11:07.807Z,35.53
2022-12-01T19:13:37.606Z,32.45
2022-12-01T19:16:08.387Z,40.28
2022-12-01T19:18:38.600Z,34.80
2022-12-01T19:21:10.460Z,36.70
2022-12-01T19:23:40.037Z,32.00
2022-12-01T19:26:14.525Z,32.70
2022-12-01T19:28:45.794Z,34.60
2022-12-01T19:31:19.860Z,32.92
2022-12-01T19:33:50.677Z,33.72
2022-12-01T19:36:23.664Z,39.00
2022-12-01T19:38:54.653Z,39.85
2022-12-01T19:41:31.586Z,39.50
2022-12-01T19:44:03.199Z,40.95
2022-12-01T19:46:32.959Z,33.97
2022-12-01T19:49:03.655Z,45.33
2022-12-01T19:51:36.597Z,43.42
2022-12-01T19:54:14.182Z,37.95
2022-12-01T19:56:47.049Z,42.78
2022-12-01T19:59:16.844Z,54.03
2022-12-01T20:01:46.094Z,66.45
2022-12-01T20:04:15.278Z,61.83
2022-12-01T20:06:45.606Z,56.25
2022-12-01T20:09:15.944Z,57.40
2022-12-01T20:11:46.814Z,61.92
2022-12-01T20:14:19.014Z,55.70
2022-12-01T20:16:49.393Z,51.00
2022-12-01T20:19:18.770Z,53.28
2022-12-01T20:21:47.983Z,43.75
2022-12-01T20:24:20.297Z,45.25
2022-12-01T20:26:53.298Z,52.38
2022-12-01T20:29:25.490Z,54.42
2022-12-01T20:31:57.754Z,55.33
2022-12-01T20:34:29.702Z,53.72
2022-12-01T20:37:02.781Z,44.97
2022-12-01T20:39:34.867Z,41.35
2022-12-01T20:42:06.600Z,45.83
2022-12-01T20:44:36.624Z,52.55
2022-12-01T20:47:06.283Z,47.33
2022-12-01T20:49:35.731Z,42.65
2022-12-01T20:52:05.192Z,46.05
2022-12-01T20:54:35.269Z,49.88
2022-12-01T20:57:06.839Z,46.70
2022-12-01T20:59:36.456Z,52.33
2022-12-01T21:02:05.803Z,49.47
2022-12-01T21:04:35.054Z,44.40
2022-12-01T21:07:04.283Z,48.65
2022-12-01T21:09:34.371Z,43.85
2022-12-01T21:12:21.987Z,35.58
2022-12-01T21:15:03.656Z,35.28
2022-12-01T21:17:36.651Z,37.13
2022-12-01T21:20:21.458Z,38.28
2022-12-01T21:22:51.688Z,41.35
2022-12-01T21:25:24.333Z,39.38
2022-12-01T21:27:57.068Z,38.53
2022-12-01T21:30:29.826Z,38.13
2022-12-01T21:33:19.063Z,48.20
2022-12-01T21:35:52.728Z,48.17
2022-12-01T21:38:22.330Z,41.33
2022-12-01T21:40:51.566Z,36.42
2022-12-01T21:43:24.537Z,33.78
2022-12-01T21:45:59.731Z,34.97
2022-12-01T21:48:36.239Z,35.55
2022-12-01T21:51:17.483Z,37.17
2022-12-01T21:53:47.864Z,39.80
2022-12-01T21:56:23.747Z,39.65
2022-12-01T21:58:53.706Z,46.22
2022-12-01T22:01:29.017Z,51.45
2022-12-01T22:04:02.721Z,55.65
2022-12-01T22:06:37.013Z,50.75
2022-12-01T22:09:16.041Z,52.25
2022-12-01T22:11:48.468Z,50.20
2022-12-01T22:14:20.890Z,49.00
2022-12-01T22:16:57.306Z,46.55
2022-12-01T22:19:32.256Z,50.15
2022-12-01T22:22:13.071Z,48.00
2022-12-01T22:24:46.859Z,41.10
2022-12-01T22:27:32.468Z,38.67
2022-12-01T22:30:11.886Z,43.95
2022-12-01T22:32:53.814Z,41.08
2022-12-01T22:35:34.850Z,43.13
2022-12-01T22:38:31.950Z,44.72
2022-12-01T22:41:05.771Z,48.92
2022-12-01T22:43:48.158Z,50.33
2022-12-01T22:46:27.430Z,50.17
2022-12-01T22:49:00.297Z,55.38
2022-12-01T22:51:40.751Z,50.17
2022-12-01T22:54:36.235Z,53.10
2022-12-01T22:57:24.835Z,43.97
2022-12-01T22:59:54.624Z,44.47
2022-12-01T23:02:26.250Z,42.03
2022-12-01T23:05:01.950Z,40.70
2022-12-01T23:07:35.098Z,42.30
2022-12-01T23:10:12.097Z,43.40
2022-12-01T23:12:43.044Z,43.78
2022-12-01T23:15:26.770Z,42.72
2022-12-01T23:17:56.160Z,49.42
2022-12-01T23:20:33.437Z,45.72
2022-12-01T23:25:36.598Z,45.15
2022-12-01T23:28:08.572Z,39.45
2022-12-01T23:30:41.587Z,42.13
2022-12-01T23:33:18.813Z,43.95
2022-12-01T23:35:57.499Z,39.08
2022-12-01T23:38:32.266Z,48.83
2022-12-01T23:41:05.619Z,43.80
2022-12-01T23:43:42.688Z,45.10
2022-12-01T23:46:15.793Z,44.67
2022-12-01T23:48:48.157Z,39.05
2022-12-01T23:51:24.338Z,42.55
2022-12-01T23:53:56.059Z,42.42
2022-12-01T23:56:29.408Z,43.78
2022-12-01T23:59:02.065Z,46.70
